sensor_id;sensor_type;location;lat;lon;timestamp;P1;durP1;ratioP1;P2;durP2;ratioP2
3924;SDS011;1977;52.274;10.518;2024-02-26T00:02:07;4.27;;;3.87;;
3924;SDS011;1977;52.274;10.518;2024-02-26T00:04:33;3.83;;;3.53;;
3924;SDS011;1977;52.274;10.518;2024-02-26T00:07:00;4.57;;;4.20;;
3924;SDS011;1977;52.274;10.518;2024-02-26T00:09:27;4.70;;;4.40;;
3924;SDS011;1977;52.274;10.518;2024-02-26T00:11:54;4.00;;;3.70;;
3924;SDS011;1977;52.274;10.518;2024-02-26T00:14:21;5.00;;;4.60;;
3924;SDS011;1977;52.274;10.518;2024-02-26T00:16:47;4.63;;;4.23;;
3924;SDS011;1977;52.274;10.518;2024-02-26T00:19:15;4.33;;;4.00;;
3924;SDS011;1977;52.274;10.518;2024-02-26T00:21:42;4.80;;;3.60;;
3924;SDS011;1977;52.274;10.518;2024-02-26T00:24:09;5.00;;;4.50;;
3924;SDS011;1977;52.274;10.518;2024-02-26T00:26:36;4.60;;;4.20;;
3924;SDS011;1977;52.274;10.518;2024-02-26T00:29:02;4.60;;;4.30;;
3924;SDS011;1977;52.274;10.518;2024-02-26T00:31:29;3.90;;;3.70;;
3924;SDS011;1977;52.274;10.518;2024-02-26T00:33:56;4.27;;;3.97;;
3924;SDS011;1977;52.274;10.518;2024-02-26T00:36:24;4.20;;;3.83;;
3924;SDS011;1977;52.274;10.518;2024-02-26T00:38:51;4.13;;;3.83;;
3924;SDS011;1977;52.274;10.518;2024-02-26T00:41:18;4.00;;;3.80;;
3924;SDS011;1977;52.274;10.518;2024-02-26T00:43:46;3.73;;;3.53;;
3924;SDS011;1977;52.274;10.518;2024-02-26T00:46:12;3.20;;;2.90;;
3924;SDS011;1977;52.274;10.518;2024-02-26T00:48:39;4.50;;;4.10;;
3924;SDS011;1977;52.274;10.518;2024-02-26T00:51:06;3.57;;;3.37;;
3924;SDS011;1977;52.274;10.518;2024-02-26T00:53:35;3.53;;;3.33;;
3924;SDS011;1977;52.274;10.518;2024-02-26T00:56:01;3.67;;;3.40;;
3924;SDS011;1977;52.274;10.518;2024-02-26T00:58:28;4.20;;;3.80;;
3924;SDS011;1977;52.274;10.518;2024-02-26T01:00:55;3.90;;;3.50;;
3924;SDS011;1977;52.274;10.518;2024-02-26T01:03:22;3.93;;;3.60;;
3924;SDS011;1977;52.274;10.518;2024-02-26T01:05:49;4.50;;;4.10;;
3924;SDS011;1977;52.274;10.518;2024-02-26T01:08:16;4.70;;;4.30;;
3924;SDS011;1977;52.274;10.518;2024-02-26T01:10:44;3.77;;;3.50;;
3924;SDS011;1977;52.274;10.518;2024-02-26T01:13:11;3.63;;;3.43;;
3924;SDS011;1977;52.274;10.518;2024-02-26T01:15:37;3.90;;;3.60;;
3924;SDS011;1977;52.274;10.518;2024-02-26T01:18:04;4.30;;;3.90;;
3924;SDS011;1977;52.274;10.518;2024-02-26T01:20:31;4.00;;;3.70;;
3924;SDS011;1977;52.274;10.518;2024-02-26T01:22:58;3.97;;;3.53;;
3924;SDS011;1977;52.274;10.518;2024-02-26T01:25:24;4.43;;;4.13;;
3924;SDS011;1977;52.274;10.518;2024-02-26T01:27:52;4.20;;;3.90;;
3924;SDS011;1977;52.274;10.518;2024-02-26T01:30:19;4.20;;;3.90;;
3924;SDS011;1977;52.274;10.518;2024-02-26T01:32:46;4.30;;;3.90;;
3924;SDS011;1977;52.274;10.518;2024-02-26T01:35:13;3.43;;;3.17;;
3924;SDS011;1977;52.274;10.518;2024-02-26T01:37:40;3.80;;;3.60;;
3924;SDS011;1977;52.274;10.518;2024-02-26T01:40:07;4.80;;;4.40;;
3924;SDS011;1977;52.274;10.518;2024-02-26T01:42:36;3.90;;;3.60;;
3924;SDS011;1977;52.274;10.518;2024-02-26T01:45:06;4.13;;;3.83;;
3924;SDS011;1977;52.274;10.518;2024-02-26T01:47:40;5.00;;;4.70;;
3924;SDS011;1977;52.274;10.518;2024-02-26T01:50:07;4.47;;;4.00;;
3924;SDS011;1977;52.274;10.518;2024-02-26T01:52:34;3.77;;;3.57;;
3924;SDS011;1977;52.274;10.518;2024-02-26T01:55:01;6.27;;;4.20;;
3924;SDS011;1977;52.274;10.518;2024-02-26T01:57:29;5.33;;;4.27;;
3924;SDS011;1977;52.274;10.518;2024-02-26T01:59:56;4.50;;;4.10;;
3924;SDS011;1977;52.274;10.518;2024-02-26T02:02:24;4.70;;;4.40;;
3924;SDS011;1977;52.274;10.518;2024-02-26T02:04:52;4.20;;;3.90;;
3924;SDS011;1977;52.274;10.518;2024-02-26T02:07:19;5.17;;;4.77;;
3924;SDS011;1977;52.274;10.518;2024-02-26T02:09:47;3.73;;;3.43;;
3924;SDS011;1977;52.274;10.518;2024-02-26T02:12:14;4.67;;;4.20;;
3924;SDS011;1977;52.274;10.518;2024-02-26T02:14:41;4.70;;;4.17;;
3924;SDS011;1977;52.274;10.518;2024-02-26T02:17:07;4.57;;;4.20;;
3924;SDS011;1977;52.274;10.518;2024-02-26T02:19:36;4.90;;;4.30;;
3924;SDS011;1977;52.274;10.518;2024-02-26T02:22:05;5.43;;;4.37;;
3924;SDS011;1977;52.274;10.518;2024-02-26T02:24:31;4.10;;;3.80;;
3924;SDS011;1977;52.274;10.518;2024-02-26T02:26:58;4.13;;;3.83;;
3924;SDS011;1977;52.274;10.518;2024-02-26T02:29:25;5.60;;;3.57;;
3924;SDS011;1977;52.274;10.518;2024-02-26T02:31:53;4.40;;;3.97;;
3924;SDS011;1977;52.274;10.518;2024-02-26T02:34:20;4.17;;;3.87;;
3924;SDS011;1977;52.274;10.518;2024-02-26T02:36:48;3.90;;;3.60;;
3924;SDS011;1977;52.274;10.518;2024-02-26T02:39:18;4.87;;;4.50;;
3924;SDS011;1977;52.274;10.518;2024-02-26T02:41:45;5.07;;;4.57;;
3924;SDS011;1977;52.274;10.518;2024-02-26T02:44:12;4.30;;;4.00;;
3924;SDS011;1977;52.274;10.518;2024-02-26T02:46:39;3.77;;;3.57;;
3924;SDS011;1977;52.274;10.518;2024-02-26T02:49:07;6.23;;;4.20;;
3924;SDS011;1977;52.274;10.518;2024-02-26T02:51:35;4.50;;;4.17;;
3924;SDS011;1977;52.274;10.518;2024-02-26T02:54:03;4.37;;;4.07;;
3924;SDS011;1977;52.274;10.518;2024-02-26T02:56:32;4.50;;;4.10;;
3924;SDS011;1977;52.274;10.518;2024-02-26T02:58:59;3.97;;;3.67;;
3924;SDS011;1977;52.274;10.518;2024-02-26T03:01:25;4.83;;;4.53;;
3924;SDS011;1977;52.274;10.518;2024-02-26T03:03:52;4.60;;;4.30;;
3924;SDS011;1977;52.274;10.518;2024-02-26T03:06:19;5.40;;;5.10;;
3924;SDS011;1977;52.274;10.518;2024-02-26T03:08:46;5.63;;;5.10;;
3924;SDS011;1977;52.274;10.518;2024-02-26T03:11:13;5.30;;;4.90;;
3924;SDS011;1977;52.274;10.518;2024-02-26T03:13:41;5.27;;;3.67;;
3924;SDS011;1977;52.274;10.518;2024-02-26T03:16:08;4.20;;;3.90;;
3924;SDS011;1977;52.274;10.518;2024-02-26T03:18:35;4.73;;;4.00;;
3924;SDS011;1977;52.274;10.518;2024-02-26T03:21:04;4.30;;;3.90;;
3924;SDS011;1977;52.274;10.518;2024-02-26T03:23:31;4.30;;;4.00;;
3924;SDS011;1977;52.274;10.518;2024-02-26T03:26:01;4.17;;;3.77;;
3924;SDS011;1977;52.274;10.518;2024-02-26T03:28:28;4.40;;;4.10;;
3924;SDS011;1977;52.274;10.518;2024-02-26T03:30:57;5.10;;;4.70;;
3924;SDS011;1977;52.274;10.518;2024-02-26T03:33:23;5.07;;;4.60;;
3924;SDS011;1977;52.274;10.518;2024-02-26T03:35:50;4.93;;;4.50;;
3924;SDS011;1977;52.274;10.518;2024-02-26T03:38:17;5.03;;;4.60;;
3924;SDS011;1977;52.274;10.518;2024-02-26T03:40:44;5.33;;;4.93;;
3924;SDS011;1977;52.274;10.518;2024-02-26T03:43:11;5.37;;;4.97;;
3924;SDS011;1977;52.274;10.518;2024-02-26T03:45:38;5.30;;;4.80;;
3924;SDS011;1977;52.274;10.518;2024-02-26T03:48:06;5.03;;;4.73;;
3924;SDS011;1977;52.274;10.518;2024-02-26T03:50:33;5.13;;;4.73;;
3924;SDS011;1977;52.274;10.518;2024-02-26T03:53:01;5.77;;;5.37;;
3924;SDS011;1977;52.274;10.518;2024-02-26T03:55:33;5.47;;;4.97;;
3924;SDS011;1977;52.274;10.518;2024-02-26T03:58:00;4.90;;;4.50;;
3924;SDS011;1977;52.274;10.518;2024-02-26T04:00:28;5.20;;;4.70;;
3924;SDS011;1977;52.274;10.518;2024-02-26T04:02:55;5.63;;;5.23;;
3924;SDS011;1977;52.274;10.518;2024-02-26T04:05:23;5.50;;;5.10;;
3924;SDS011;1977;52.274;10.518;2024-02-26T04:07:51;5.00;;;4.60;;
3924;SDS011;1977;52.274;10.518;2024-02-26T04:10:18;5.40;;;5.00;;
3924;SDS011;1977;52.274;10.518;2024-02-26T04:12:44;5.10;;;4.77;;
3924;SDS011;1977;52.274;10.518;2024-02-26T04:15:11;5.30;;;4.83;;
3924;SDS011;1977;52.274;10.518;2024-02-26T04:17:38;6.20;;;5.60;;
3924;SDS011;1977;52.274;10.518;2024-02-26T04:20:06;5.43;;;5.03;;
3924;SDS011;1977;52.274;10.518;2024-02-26T04:22:36;5.50;;;5.00;;
3924;SDS011;1977;52.274;10.518;2024-02-26T04:25:03;5.13;;;4.73;;
3924;SDS011;1977;52.274;10.518;2024-02-26T04:27:30;5.70;;;5.20;;
3924;SDS011;1977;52.274;10.518;2024-02-26T04:29:57;5.93;;;5.43;;
3924;SDS011;1977;52.274;10.518;2024-02-26T04:32:23;5.13;;;4.73;;
3924;SDS011;1977;52.274;10.518;2024-02-26T04:34:50;6.20;;;5.10;;
3924;SDS011;1977;52.274;10.518;2024-02-26T04:37:17;6.53;;;5.97;;
3924;SDS011;1977;52.274;10.518;2024-02-26T04:39:45;5.80;;;5.30;;
3924;SDS011;1977;52.274;10.518;2024-02-26T04:42:12;5.37;;;4.97;;
3924;SDS011;1977;52.274;10.518;2024-02-26T04:44:39;7.63;;;5.03;;
3924;SDS011;1977;52.274;10.518;2024-02-26T04:47:06;5.83;;;5.33;;
3924;SDS011;1977;52.274;10.518;2024-02-26T04:49:32;5.73;;;5.23;;
3924;SDS011;1977;52.274;10.518;2024-02-26T04:52:00;5.97;;;5.57;;
3924;SDS011;1977;52.274;10.518;2024-02-26T04:54:25;6.23;;;5.73;;
3924;SDS011;1977;52.274;10.518;2024-02-26T04:56:53;6.10;;;5.50;;
3924;SDS011;1977;52.274;10.518;2024-02-26T04:59:20;5.83;;;5.33;;
3924;SDS011;1977;52.274;10.518;2024-02-26T05:01:47;5.77;;;5.37;;
3924;SDS011;1977;52.274;10.518;2024-02-26T05:04:14;6.17;;;5.57;;
3924;SDS011;1977;52.274;10.518;2024-02-26T05:06:41;5.63;;;5.13;;
3924;SDS011;1977;52.274;10.518;2024-02-26T05:09:08;4.93;;;4.50;;
3924;SDS011;1977;52.274;10.518;2024-02-26T05:11:35;6.80;;;6.20;;
3924;SDS011;1977;52.274;10.518;2024-02-26T05:14:03;5.90;;;5.30;;
3924;SDS011;1977;52.274;10.518;2024-02-26T05:16:30;6.00;;;5.50;;
3924;SDS011;1977;52.274;10.518;2024-02-26T05:18:57;6.63;;;5.97;;
3924;SDS011;1977;52.274;10.518;2024-02-26T05:21:24;6.03;;;5.53;;
3924;SDS011;1977;52.274;10.518;2024-02-26T05:23:50;6.03;;;5.47;;
3924;SDS011;1977;52.274;10.518;2024-02-26T05:26:20;6.27;;;5.77;;
3924;SDS011;1977;52.274;10.518;2024-02-26T05:28:47;6.90;;;6.30;;
3924;SDS011;1977;52.274;10.518;2024-02-26T05:31:16;5.57;;;5.17;;
3924;SDS011;1977;52.274;10.518;2024-02-26T05:33:43;7.53;;;6.70;;
3924;SDS011;1977;52.274;10.518;2024-02-26T05:36:17;7.00;;;6.30;;
3924;SDS011;1977;52.274;10.518;2024-02-26T05:38:44;6.53;;;5.93;;
3924;SDS011;1977;52.274;10.518;2024-02-26T05:41:12;7.30;;;6.50;;
3924;SDS011;1977;52.274;10.518;2024-02-26T05:43:39;6.53;;;5.80;;
3924;SDS011;1977;52.274;10.518;2024-02-26T05:46:05;6.70;;;6.00;;
3924;SDS011;1977;52.274;10.518;2024-02-26T05:48:33;7.00;;;6.37;;
3924;SDS011;1977;52.274;10.518;2024-02-26T05:51:00;7.53;;;6.83;;
3924;SDS011;1977;52.274;10.518;2024-02-26T05:53:27;8.33;;;6.77;;
3924;SDS011;1977;52.274;10.518;2024-02-26T05:55:54;7.53;;;6.83;;
3924;SDS011;1977;52.274;10.518;2024-02-26T05:58:21;7.30;;;6.70;;
3924;SDS011;1977;52.274;10.518;2024-02-26T06:00:47;7.33;;;6.63;;
3924;SDS011;1977;52.274;10.518;2024-02-26T06:03:14;7.50;;;6.80;;
3924;SDS011;1977;52.274;10.518;2024-02-26T06:05:42;7.27;;;6.57;;
3924;SDS011;1977;52.274;10.518;2024-02-26T06:08:09;7.97;;;6.53;;
3924;SDS011;1977;52.274;10.518;2024-02-26T06:10:36;7.60;;;7.10;;
3924;SDS011;1977;52.274;10.518;2024-02-26T06:13:04;6.93;;;6.30;;
3924;SDS011;1977;52.274;10.518;2024-02-26T06:15:31;7.60;;;6.90;;
3924;SDS011;1977;52.274;10.518;2024-02-26T06:17:57;9.93;;;7.43;;
3924;SDS011;1977;52.274;10.518;2024-02-26T06:20:24;6.80;;;6.20;;
3924;SDS011;1977;52.274;10.518;2024-02-26T06:22:52;10.00;;;6.63;;
3924;SDS011;1977;52.274;10.518;2024-02-26T06:25:19;9.80;;;7.43;;
3924;SDS011;1977;52.274;10.518;2024-02-26T06:27:46;7.17;;;6.53;;
3924;SDS011;1977;52.274;10.518;2024-02-26T06:30:13;8.03;;;7.27;;
3924;SDS011;1977;52.274;10.518;2024-02-26T06:32:39;6.93;;;6.33;;
3924;SDS011;1977;52.274;10.518;2024-02-26T06:35:07;7.43;;;6.63;;
3924;SDS011;1977;52.274;10.518;2024-02-26T06:37:35;7.37;;;6.67;;
3924;SDS011;1977;52.274;10.518;2024-02-26T06:40:04;7.63;;;6.37;;
3924;SDS011;1977;52.274;10.518;2024-02-26T06:42:32;7.47;;;6.77;;
3924;SDS011;1977;52.274;10.518;2024-02-26T06:44:59;7.37;;;6.73;;
3924;SDS011;1977;52.274;10.518;2024-02-26T06:47:26;7.87;;;7.17;;
3924;SDS011;1977;52.274;10.518;2024-02-26T06:49:52;7.30;;;6.70;;
3924;SDS011;1977;52.274;10.518;2024-02-26T06:52:23;7.63;;;6.93;;
3924;SDS011;1977;52.274;10.518;2024-02-26T06:54:50;7.77;;;7.17;;
3924;SDS011;1977;52.274;10.518;2024-02-26T06:57:19;12.17;;;7.50;;
3924;SDS011;1977;52.274;10.518;2024-02-26T06:59:45;7.23;;;6.57;;
3924;SDS011;1977;52.274;10.518;2024-02-26T07:02:12;7.97;;;7.27;;
3924;SDS011;1977;52.274;10.518;2024-02-26T07:04:41;8.67;;;7.97;;
3924;SDS011;1977;52.274;10.518;2024-02-26T07:07:08;8.87;;;7.50;;
3924;SDS011;1977;52.274;10.518;2024-02-26T07:09:35;7.83;;;6.87;;
3924;SDS011;1977;52.274;10.518;2024-02-26T07:12:02;8.30;;;7.60;;
3924;SDS011;1977;52.274;10.518;2024-02-26T07:14:37;7.67;;;7.00;;
3924;SDS011;1977;52.274;10.518;2024-02-26T07:17:04;8.27;;;7.47;;
3924;SDS011;1977;52.274;10.518;2024-02-26T07:19:31;8.50;;;7.40;;
3924;SDS011;1977;52.274;10.518;2024-02-26T07:21:58;7.57;;;6.80;;
3924;SDS011;1977;52.274;10.518;2024-02-26T07:24:26;9.30;;;8.40;;
3924;SDS011;1977;52.274;10.518;2024-02-26T07:26:53;8.50;;;7.70;;
3924;SDS011;1977;52.274;10.518;2024-02-26T07:29:20;8.67;;;7.87;;
3924;SDS011;1977;52.274;10.518;2024-02-26T07:31:48;8.50;;;7.70;;
3924;SDS011;1977;52.274;10.518;2024-02-26T07:34:15;8.70;;;7.10;;
3924;SDS011;1977;52.274;10.518;2024-02-26T07:36:42;8.30;;;6.83;;
3924;SDS011;1977;52.274;10.518;2024-02-26T07:39:09;9.43;;;7.47;;
3924;SDS011;1977;52.274;10.518;2024-02-26T07:41:36;9.13;;;7.90;;
3924;SDS011;1977;52.274;10.518;2024-02-26T07:44:04;8.27;;;7.47;;
3924;SDS011;1977;52.274;10.518;2024-02-26T07:46:30;8.17;;;7.37;;
3924;SDS011;1977;52.274;10.518;2024-02-26T07:48:58;7.70;;;7.00;;
3924;SDS011;1977;52.274;10.518;2024-02-26T07:51:25;8.33;;;7.60;;
3924;SDS011;1977;52.274;10.518;2024-02-26T07:53:52;11.03;;;7.57;;
3924;SDS011;1977;52.274;10.518;2024-02-26T07:56:19;8.20;;;7.40;;
3924;SDS011;1977;52.274;10.518;2024-02-26T07:58:45;7.47;;;6.70;;
3924;SDS011;1977;52.274;10.518;2024-02-26T08:01:12;7.40;;;6.70;;
3924;SDS011;1977;52.274;10.518;2024-02-26T08:03:39;6.77;;;6.23;;
3924;SDS011;1977;52.274;10.518;2024-02-26T08:06:09;7.30;;;6.57;;
3924;SDS011;1977;52.274;10.518;2024-02-26T08:08:35;7.60;;;6.70;;
3924;SDS011;1977;52.274;10.518;2024-02-26T08:11:02;7.77;;;7.07;;
3924;SDS011;1977;52.274;10.518;2024-02-26T08:13:29;7.47;;;6.77;;
3924;SDS011;1977;52.274;10.518;2024-02-26T08:15:56;7.43;;;6.73;;
3924;SDS011;1977;52.274;10.518;2024-02-26T08:18:23;6.93;;;6.40;;
3924;SDS011;1977;52.274;10.518;2024-02-26T08:20:50;6.90;;;6.30;;
3924;SDS011;1977;52.274;10.518;2024-02-26T08:23:18;6.70;;;6.10;;
3924;SDS011;1977;52.274;10.518;2024-02-26T08:25:45;6.60;;;6.00;;
3924;SDS011;1977;52.274;10.518;2024-02-26T08:28:12;8.87;;;6.20;;
3924;SDS011;1977;52.274;10.518;2024-02-26T08:30:39;6.17;;;5.57;;
3924;SDS011;1977;52.274;10.518;2024-02-26T08:33:06;7.00;;;5.70;;
3924;SDS011;1977;52.274;10.518;2024-02-26T08:35:33;11.40;;;6.40;;
3924;SDS011;1977;52.274;10.518;2024-02-26T08:38:00;7.33;;;6.57;;
3924;SDS011;1977;52.274;10.518;2024-02-26T08:40:28;6.20;;;5.70;;
3924;SDS011;1977;52.274;10.518;2024-02-26T08:42:55;6.30;;;5.80;;
3924;SDS011;1977;52.274;10.518;2024-02-26T08:45:22;5.73;;;5.13;;
3924;SDS011;1977;52.274;10.518;2024-02-26T08:47:49;5.77;;;5.37;;
3924;SDS011;1977;52.274;10.518;2024-02-26T08:50:16;6.13;;;5.63;;
3924;SDS011;1977;52.274;10.518;2024-02-26T08:52:43;5.83;;;5.30;;
3924;SDS011;1977;52.274;10.518;2024-02-26T08:55:13;6.13;;;5.63;;
3924;SDS011;1977;52.274;10.518;2024-02-26T08:57:41;5.97;;;5.57;;
3924;SDS011;1977;52.274;10.518;2024-02-26T09:00:08;5.90;;;5.30;;
3924;SDS011;1977;52.274;10.518;2024-02-26T09:02:36;6.03;;;5.53;;
3924;SDS011;1977;52.274;10.518;2024-02-26T09:05:04;6.43;;;5.93;;
3924;SDS011;1977;52.274;10.518;2024-02-26T09:07:31;5.67;;;5.27;;
3924;SDS011;1977;52.274;10.518;2024-02-26T09:09:58;5.97;;;5.47;;
3924;SDS011;1977;52.274;10.518;2024-02-26T09:12:25;5.27;;;4.90;;
3924;SDS011;1977;52.274;10.518;2024-02-26T09:14:53;6.33;;;5.20;;
3924;SDS011;1977;52.274;10.518;2024-02-26T09:17:21;5.83;;;5.33;;
3924;SDS011;1977;52.274;10.518;2024-02-26T09:19:48;5.23;;;4.93;;
3924;SDS011;1977;52.274;10.518;2024-02-26T09:22:14;5.37;;;4.87;;
3924;SDS011;1977;52.274;10.518;2024-02-26T09:24:41;5.60;;;5.07;;
3924;SDS011;1977;52.274;10.518;2024-02-26T09:27:08;5.30;;;5.00;;
3924;SDS011;1977;52.274;10.518;2024-02-26T09:29:35;5.60;;;5.23;;
3924;SDS011;1977;52.274;10.518;2024-02-26T09:32:03;10.30;;;5.07;;
3924;SDS011;1977;52.274;10.518;2024-02-26T09:34:30;4.53;;;4.20;;
3924;SDS011;1977;52.274;10.518;2024-02-26T09:36:58;5.57;;;4.40;;
3924;SDS011;1977;52.274;10.518;2024-02-26T09:39:25;5.13;;;4.63;;
3924;SDS011;1977;52.274;10.518;2024-02-26T09:41:52;4.17;;;3.97;;
3924;SDS011;1977;52.274;10.518;2024-02-26T09:44:19;4.97;;;4.57;;
3924;SDS011;1977;52.274;10.518;2024-02-26T09:46:47;4.30;;;4.00;;
3924;SDS011;1977;52.274;10.518;2024-02-26T09:49:16;5.27;;;4.77;;
3924;SDS011;1977;52.274;10.518;2024-02-26T09:51:44;6.60;;;4.77;;
3924;SDS011;1977;52.274;10.518;2024-02-26T09:54:12;8.23;;;4.90;;
3924;SDS011;1977;52.274;10.518;2024-02-26T09:56:41;5.70;;;5.20;;
3924;SDS011;1977;52.274;10.518;2024-02-26T09:59:10;4.90;;;4.50;;
3924;SDS011;1977;52.274;10.518;2024-02-26T10:01:41;5.13;;;4.67;;
3924;SDS011;1977;52.274;10.518;2024-02-26T10:04:10;5.50;;;5.00;;
3924;SDS011;1977;52.274;10.518;2024-02-26T10:06:39;5.53;;;5.13;;
3924;SDS011;1977;52.274;10.518;2024-02-26T10:09:09;4.47;;;4.27;;
3924;SDS011;1977;52.274;10.518;2024-02-26T10:11:37;10.50;;;5.50;;
3924;SDS011;1977;52.274;10.518;2024-02-26T10:14:08;4.90;;;4.50;;
3924;SDS011;1977;52.274;10.518;2024-02-26T10:16:35;6.00;;;5.50;;
3924;SDS011;1977;52.274;10.518;2024-02-26T10:19:02;5.30;;;5.00;;
3924;SDS011;1977;52.274;10.518;2024-02-26T10:21:28;4.60;;;4.30;;
3924;SDS011;1977;52.274;10.518;2024-02-26T10:23:56;4.53;;;4.20;;
3924;SDS011;1977;52.274;10.518;2024-02-26T10:26:23;5.30;;;4.90;;
3924;SDS011;1977;52.274;10.518;2024-02-26T10:28:50;10.90;;;5.00;;
3924;SDS011;1977;52.274;10.518;2024-02-26T10:31:17;7.40;;;5.23;;
3924;SDS011;1977;52.274;10.518;2024-02-26T10:33:44;5.57;;;4.93;;
3924;SDS011;1977;52.274;10.518;2024-02-26T10:36:11;6.67;;;5.97;;
3924;SDS011;1977;52.274;10.518;2024-02-26T10:38:38;6.33;;;5.67;;
3924;SDS011;1977;52.274;10.518;2024-02-26T10:41:07;6.57;;;5.70;;
3924;SDS011;1977;52.274;10.518;2024-02-26T10:43:39;6.00;;;5.57;;
3924;SDS011;1977;52.274;10.518;2024-02-26T10:46:07;5.60;;;5.10;;
3924;SDS011;1977;52.274;10.518;2024-02-26T10:48:35;7.00;;;6.17;;
3924;SDS011;1977;52.274;10.518;2024-02-26T10:51:02;6.07;;;5.50;;
3924;SDS011;1977;52.274;10.518;2024-02-26T10:53:30;7.10;;;6.20;;
3924;SDS011;1977;52.274;10.518;2024-02-26T10:56:00;6.43;;;5.83;;
3924;SDS011;1977;52.274;10.518;2024-02-26T10:58:31;6.93;;;6.33;;
3924;SDS011;1977;52.274;10.518;2024-02-26T11:00:58;7.37;;;6.63;;
3924;SDS011;1977;52.274;10.518;2024-02-26T11:03:25;6.50;;;5.50;;
3924;SDS011;1977;52.274;10.518;2024-02-26T11:05:53;8.03;;;6.67;;
3924;SDS011;1977;52.274;10.518;2024-02-26T11:08:21;7.70;;;7.00;;
3924;SDS011;1977;52.274;10.518;2024-02-26T11:10:50;6.73;;;6.13;;
3924;SDS011;1977;52.274;10.518;2024-02-26T11:13:19;7.97;;;7.20;;
3924;SDS011;1977;52.274;10.518;2024-02-26T11:15:49;7.00;;;6.40;;
3924;SDS011;1977;52.274;10.518;2024-02-26T11:18:18;7.07;;;6.47;;
3924;SDS011;1977;52.274;10.518;2024-02-26T11:20:47;9.13;;;7.50;;
3924;SDS011;1977;52.274;10.518;2024-02-26T11:23:15;7.03;;;6.23;;
3924;SDS011;1977;52.274;10.518;2024-02-26T11:25:43;8.60;;;7.17;;
3924;SDS011;1977;52.274;10.518;2024-02-26T11:28:10;7.53;;;6.73;;
3924;SDS011;1977;52.274;10.518;2024-02-26T11:30:42;9.87;;;7.70;;
3924;SDS011;1977;52.274;10.518;2024-02-26T11:33:14;7.60;;;6.80;;
3924;SDS011;1977;52.274;10.518;2024-02-26T11:35:42;8.40;;;7.50;;
3924;SDS011;1977;52.274;10.518;2024-02-26T11:38:09;8.53;;;7.47;;
3924;SDS011;1977;52.274;10.518;2024-02-26T11:40:45;9.43;;;7.67;;
3924;SDS011;1977;52.274;10.518;2024-02-26T11:43:12;8.47;;;7.70;;
3924;SDS011;1977;52.274;10.518;2024-02-26T11:45:51;8.03;;;7.23;;
3924;SDS011;1977;52.274;10.518;2024-02-26T11:48:21;8.53;;;7.63;;
3924;SDS011;1977;52.274;10.518;2024-02-26T11:50:48;8.67;;;7.57;;
3924;SDS011;1977;52.274;10.518;2024-02-26T11:53:20;9.87;;;7.83;;
3924;SDS011;1977;52.274;10.518;2024-02-26T11:55:47;10.03;;;8.63;;
3924;SDS011;1977;52.274;10.518;2024-02-26T11:58:14;10.00;;;8.00;;
3924;SDS011;1977;52.274;10.518;2024-02-26T12:00:42;8.93;;;8.03;;
3924;SDS011;1977;52.274;10.518;2024-02-26T12:03:09;8.10;;;7.37;;
3924;SDS011;1977;52.274;10.518;2024-02-26T12:05:38;9.13;;;8.03;;
3924;SDS011;1977;52.274;10.518;2024-02-26T12:08:06;8.97;;;7.80;;
3924;SDS011;1977;52.274;10.518;2024-02-26T12:10:35;9.40;;;8.50;;
3924;SDS011;1977;52.274;10.518;2024-02-26T12:13:05;9.40;;;8.40;;
3924;SDS011;1977;52.274;10.518;2024-02-26T12:15:35;10.97;;;8.33;;
3924;SDS011;1977;52.274;10.518;2024-02-26T12:18:04;9.80;;;7.50;;
3924;SDS011;1977;52.274;10.518;2024-02-26T12:20:32;9.00;;;8.07;;
3924;SDS011;1977;52.274;10.518;2024-02-26T12:23:01;9.57;;;8.60;;
3924;SDS011;1977;52.274;10.518;2024-02-26T12:25:29;10.17;;;9.00;;
3924;SDS011;1977;52.274;10.518;2024-02-26T12:27:57;8.77;;;7.87;;
3924;SDS011;1977;52.274;10.518;2024-02-26T12:30:25;9.03;;;8.10;;
3924;SDS011;1977;52.274;10.518;2024-02-26T12:32:54;9.67;;;8.67;;
3924;SDS011;1977;52.274;10.518;2024-02-26T12:35:23;10.30;;;8.60;;
3924;SDS011;1977;52.274;10.518;2024-02-26T12:37:50;10.80;;;8.53;;
3924;SDS011;1977;52.274;10.518;2024-02-26T12:40:20;8.77;;;7.97;;
3924;SDS011;1977;52.274;10.518;2024-02-26T12:42:47;9.57;;;7.70;;
3924;SDS011;1977;52.274;10.518;2024-02-26T12:45:14;10.33;;;9.33;;
3924;SDS011;1977;52.274;10.518;2024-02-26T12:47:42;8.90;;;8.00;;
3924;SDS011;1977;52.274;10.518;2024-02-26T12:50:08;10.00;;;8.90;;
3924;SDS011;1977;52.274;10.518;2024-02-26T12:52:37;10.10;;;8.23;;
3924;SDS011;1977;52.274;10.518;2024-02-26T12:55:06;10.10;;;8.90;;
3924;SDS011;1977;52.274;10.518;2024-02-26T12:57:35;10.07;;;9.07;;
3924;SDS011;1977;52.274;10.518;2024-02-26T13:00:04;9.40;;;8.40;;
3924;SDS011;1977;52.274;10.518;2024-02-26T13:02:34;9.90;;;8.90;;
3924;SDS011;1977;52.274;10.518;2024-02-26T13:05:02;10.10;;;8.80;;
3924;SDS011;1977;52.274;10.518;2024-02-26T13:07:29;10.80;;;9.70;;
3924;SDS011;1977;52.274;10.518;2024-02-26T13:09:58;10.50;;;9.23;;
3924;SDS011;1977;52.274;10.518;2024-02-26T13:12:25;11.70;;;9.90;;
3924;SDS011;1977;52.274;10.518;2024-02-26T13:14:59;10.90;;;9.07;;
3924;SDS011;1977;52.274;10.518;2024-02-26T13:17:26;11.40;;;10.20;;
3924;SDS011;1977;52.274;10.518;2024-02-26T13:19:54;10.90;;;9.77;;
3924;SDS011;1977;52.274;10.518;2024-02-26T13:22:21;11.67;;;9.97;;
3924;SDS011;1977;52.274;10.518;2024-02-26T13:24:53;10.70;;;9.30;;
3924;SDS011;1977;52.274;10.518;2024-02-26T13:27:21;13.40;;;10.63;;
3924;SDS011;1977;52.274;10.518;2024-02-26T13:29:48;10.60;;;9.07;;
3924;SDS011;1977;52.274;10.518;2024-02-26T13:32:16;10.87;;;9.70;;
3924;SDS011;1977;52.274;10.518;2024-02-26T13:34:43;9.70;;;8.70;;
3924;SDS011;1977;52.274;10.518;2024-02-26T13:37:10;10.67;;;8.80;;
3924;SDS011;1977;52.274;10.518;2024-02-26T13:39:37;11.20;;;9.70;;
3924;SDS011;1977;52.274;10.518;2024-02-26T13:42:05;11.27;;;9.10;;
3924;SDS011;1977;52.274;10.518;2024-02-26T13:44:36;11.47;;;10.27;;
3924;SDS011;1977;52.274;10.518;2024-02-26T13:47:05;13.57;;;10.87;;
3924;SDS011;1977;52.274;10.518;2024-02-26T13:49:33;12.10;;;9.47;;
3924;SDS011;1977;52.274;10.518;2024-02-26T13:52:00;12.97;;;10.70;;
3924;SDS011;1977;52.274;10.518;2024-02-26T13:54:27;11.87;;;10.47;;
3924;SDS011;1977;52.274;10.518;2024-02-26T13:56:54;11.40;;;9.40;;
3924;SDS011;1977;52.274;10.518;2024-02-26T13:59:21;12.50;;;9.87;;
3924;SDS011;1977;52.274;10.518;2024-02-26T14:01:47;11.20;;;9.67;;
3924;SDS011;1977;52.274;10.518;2024-02-26T14:04:14;10.20;;;9.20;;
3924;SDS011;1977;52.274;10.518;2024-02-26T14:06:43;12.07;;;10.40;;
3924;SDS011;1977;52.274;10.518;2024-02-26T14:09:10;10.67;;;9.60;;
3924;SDS011;1977;52.274;10.518;2024-02-26T14:11:43;11.00;;;9.90;;
3924;SDS011;1977;52.274;10.518;2024-02-26T14:14:10;10.70;;;9.60;;
3924;SDS011;1977;52.274;10.518;2024-02-26T14:16:37;12.93;;;10.50;;
3924;SDS011;1977;52.274;10.518;2024-02-26T14:19:04;11.10;;;9.90;;
3924;SDS011;1977;52.274;10.518;2024-02-26T14:21:31;11.00;;;9.90;;
3924;SDS011;1977;52.274;10.518;2024-02-26T14:23:59;12.43;;;9.30;;
3924;SDS011;1977;52.274;10.518;2024-02-26T14:26:26;13.37;;;10.40;;
3924;SDS011;1977;52.274;10.518;2024-02-26T14:28:53;10.63;;;9.40;;
3924;SDS011;1977;52.274;10.518;2024-02-26T14:31:21;11.33;;;10.13;;
3924;SDS011;1977;52.274;10.518;2024-02-26T14:33:47;12.70;;;9.90;;
3924;SDS011;1977;52.274;10.518;2024-02-26T14:36:18;10.97;;;9.63;;
3924;SDS011;1977;52.274;10.518;2024-02-26T14:38:45;11.07;;;9.20;;
3924;SDS011;1977;52.274;10.518;2024-02-26T14:41:14;10.70;;;9.47;;
3924;SDS011;1977;52.274;10.518;2024-02-26T14:43:40;10.97;;;9.50;;
3924;SDS011;1977;52.274;10.518;2024-02-26T14:46:08;12.47;;;9.77;;
3924;SDS011;1977;52.274;10.518;2024-02-26T14:48:35;14.70;;;10.00;;
3924;SDS011;1977;52.274;10.518;2024-02-26T14:51:01;10.97;;;9.80;;
3924;SDS011;1977;52.274;10.518;2024-02-26T14:53:31;11.40;;;9.70;;
3924;SDS011;1977;52.274;10.518;2024-02-26T14:55:58;11.77;;;10.37;;
3924;SDS011;1977;52.274;10.518;2024-02-26T14:58:26;10.73;;;9.57;;
3924;SDS011;1977;52.274;10.518;2024-02-26T15:00:52;10.80;;;9.70;;